createdAt,value
2022-08-17T00:01:44.943Z,11.65
2022-08-17T00:04:19.858Z,12.68
2022-08-17T00:06:49.244Z,12.27
2022-08-17T00:09:18.686Z,11.85
2022-08-17T00:12:34.982Z,12.00
2022-08-17T00:14:34.890Z,11.20
2022-08-17T00:17:03.843Z,12.02
2022-08-17T00:19:32.622Z,12.00
2022-08-17T00:22:34.207Z,11.57
2022-08-17T00:24:50.018Z,11.20
2022-08-17T00:27:17.433Z,11.88
2022-08-17T00:29:45.830Z,11.75
2022-08-17T00:33:12.632Z,11.18
2022-08-17T00:35:00.807Z,11.90
2022-08-17T00:37:28.042Z,11.07
2022-08-17T00:39:55.238Z,11.02
2022-08-17T00:42:23.241Z,11.10
2022-08-17T00:44:51.715Z,11.80
2022-08-17T00:47:18.894Z,12.38
2022-08-17T00:49:46.071Z,12.15
2022-08-17T00:52:16.593Z,12.40
2022-08-17T00:54:45.639Z,12.10
2022-08-17T00:57:39.053Z,12.20
2022-08-17T01:00:10.912Z,11.65
2022-08-17T01:02:43.211Z,11.65
2022-08-17T01:05:13.306Z,11.57
2022-08-17T01:07:40.814Z,11.05
2022-08-17T01:10:58.159Z,11.73
2022-08-17T01:12:58.399Z,11.93
2022-08-17T01:15:25.994Z,12.55
2022-08-17T01:17:53.190Z,11.85
2022-08-17T01:20:20.428Z,12.07
2022-08-17T01:22:47.570Z,13.40
2022-08-17T01:25:15.256Z,12.40
2022-08-17T01:27:43.447Z,13.32
2022-08-17T01:30:58.042Z,12.32
2022-08-17T01:33:00.069Z,12.18
2022-08-17T01:35:27.299Z,12.30
2022-08-17T01:37:54.427Z,12.15
2022-08-17T01:40:30.703Z,12.80
2022-08-17T01:43:00.880Z,13.43
2022-08-17T01:45:30.398Z,12.77
2022-08-17T01:47:57.584Z,13.00
2022-08-17T01:50:27.271Z,13.80
2022-08-17T01:52:57.716Z,15.15
2022-08-17T01:55:27.636Z,16.70
2022-08-17T01:57:54.828Z,18.48
2022-08-17T02:00:22.565Z,18.73
2022-08-17T02:02:49.868Z,22.02
2022-08-17T02:05:18.398Z,22.92
2022-08-17T02:08:00.514Z,21.33
2022-08-17T02:10:33.668Z,25.38
2022-08-17T02:13:02.012Z,28.67
2022-08-17T02:15:29.436Z,27.60
2022-08-17T02:17:56.549Z,27.92
2022-08-17T02:20:41.394Z,28.23
2022-08-17T02:23:09.915Z,27.67
2022-08-17T02:25:37.442Z,27.42
2022-08-17T02:28:05.343Z,27.45
2022-08-17T02:31:00.790Z,25.92
2022-08-17T02:33:20.651Z,25.63
2022-08-17T02:35:48.666Z,25.35
2022-08-17T02:38:15.836Z,24.50
2022-08-17T02:40:42.989Z,25.30
2022-08-17T02:43:13.699Z,25.60
2022-08-17T02:45:40.904Z,26.17
2022-08-17T02:48:08.376Z,28.00
2022-08-17T02:50:35.597Z,26.33
2022-08-17T02:53:02.957Z,28.08
2022-08-17T02:55:36.245Z,29.02
2022-08-17T02:58:03.786Z,28.87
2022-08-17T03:00:41.760Z,28.58
2022-08-17T03:03:10.742Z,29.67
2022-08-17T03:05:38.826Z,28.07
2022-08-17T03:08:06.868Z,29.15
2022-08-17T03:10:38.896Z,28.83
2022-08-17T03:13:06.028Z,29.13
2022-08-17T03:15:34.623Z,26.83
2022-08-17T03:18:03.519Z,27.30
2022-08-17T03:20:32.018Z,27.37
2022-08-17T03:23:01.973Z,26.80
2022-08-17T03:25:32.416Z,27.13
2022-08-17T03:28:01.590Z,26.97
2022-08-17T03:30:29.518Z,27.23
2022-08-17T03:32:58.826Z,27.17
2022-08-17T03:35:27.803Z,27.93
2022-08-17T03:38:00.564Z,28.30
2022-08-17T03:40:34.650Z,27.70
2022-08-17T03:43:15.836Z,28.37
2022-08-17T03:46:01.876Z,28.30
2022-08-17T03:48:49.427Z,29.83
2022-08-17T03:51:40.019Z,28.87
2022-08-17T03:54:26.055Z,28.03
2022-08-17T03:57:19.334Z,26.07
2022-08-17T03:59:46.734Z,27.20
2022-08-17T04:02:18.116Z,26.03
2022-08-17T04:04:45.361Z,26.70
2022-08-17T04:07:12.677Z,27.60
2022-08-17T04:09:39.810Z,26.53
2022-08-17T04:12:07.029Z,26.33
2022-08-17T04:14:52.054Z,25.17
2022-08-17T04:17:26.078Z,25.03
2022-08-17T04:19:53.481Z,23.20
2022-08-17T04:22:30.647Z,22.80
2022-08-17T04:25:02.291Z,22.13
2022-08-17T04:27:29.418Z,21.60
2022-08-17T04:29:56.558Z,21.83
2022-08-17T04:33:04.552Z,21.50
2022-08-17T04:35:11.295Z,20.50
2022-08-17T04:37:38.428Z,20.30
2022-08-17T04:40:27.349Z,21.47
2022-08-17T04:43:08.728Z,20.43
2022-08-17T04:45:39.563Z,19.40
2022-08-17T04:48:06.929Z,19.47
2022-08-17T04:50:35.007Z,19.33
2022-08-17T04:53:02.331Z,18.33
2022-08-17T04:55:29.684Z,19.03
2022-08-17T04:57:56.863Z,18.90
2022-08-17T05:00:25.851Z,17.97
2022-08-17T05:02:54.647Z,18.90
2022-08-17T05:05:23.509Z,17.53
2022-08-17T05:07:54.889Z,18.10
2022-08-17T05:10:22.615Z,17.75
2022-08-17T05:12:58.379Z,16.65
2022-08-17T05:15:25.583Z,15.90
2022-08-17T05:17:52.801Z,16.27
2022-08-17T05:20:19.919Z,17.52
2022-08-17T05:22:49.310Z,15.93
2022-08-17T05:25:18.775Z,16.53
2022-08-17T05:27:52.829Z,15.53
2022-08-17T05:30:20.136Z,15.35
2022-08-17T05:32:53.355Z,14.13
2022-08-17T05:35:21.043Z,13.87
2022-08-17T05:37:48.248Z,14.02
2022-08-17T05:40:15.480Z,13.40
2022-08-17T05:42:42.716Z,13.23
2022-08-17T05:45:10.621Z,12.27
2022-08-17T05:47:39.751Z,11.93
2022-08-17T05:50:09.928Z,11.32
2022-08-17T05:53:00.547Z,11.33
2022-08-17T05:55:43.251Z,10.80
2022-08-17T05:58:20.145Z,10.53
2022-08-17T06:00:51.833Z,10.65
2022-08-17T06:03:34.217Z,10.70
2022-08-17T06:06:01.784Z,10.88
2022-08-17T06:08:35.344Z,11.32
2022-08-17T06:11:09.070Z,10.95
2022-08-17T06:13:54.707Z,10.57
2022-08-17T06:16:31.079Z,11.07
2022-08-17T06:19:05.101Z,10.57
2022-08-17T06:21:35.081Z,10.77
2022-08-17T06:24:28.346Z,11.70
2022-08-17T06:26:57.945Z,12.25
2022-08-17T06:29:54.164Z,11.45
2022-08-17T06:32:21.389Z,11.67
2022-08-17T06:34:48.710Z,11.60
2022-08-17T06:37:22.414Z,11.63
2022-08-17T06:39:58.405Z,10.40
2022-08-17T06:43:02.358Z,10.70
2022-08-17T06:45:13.690Z,11.45
2022-08-17T06:47:43.673Z,11.52
2022-08-17T06:50:30.308Z,10.80
2022-08-17T06:53:05.790Z,10.83
2022-08-17T06:55:38.283Z,11.05
2022-08-17T06:58:16.413Z,10.43
2022-08-17T07:00:46.193Z,9.93
2022-08-17T07:03:21.173Z,10.13
2022-08-17T07:05:50.315Z,10.38
2022-08-17T07:08:50.783Z,10.52
2022-08-17T07:11:20.404Z,9.77
2022-08-17T07:14:06.378Z,10.43
2022-08-17T07:16:39.240Z,10.60
2022-08-17T07:19:07.463Z,10.10
2022-08-17T07:21:55.052Z,10.07
2022-08-17T07:24:43.264Z,9.98
2022-08-17T07:27:12.412Z,10.15
2022-08-17T07:29:41.779Z,10.07
2022-08-17T07:32:10.022Z,11.63
2022-08-17T07:34:56.170Z,10.25
2022-08-17T07:37:23.341Z,10.43
2022-08-17T07:39:59.631Z,10.65
2022-08-17T07:42:40.732Z,10.13
2022-08-17T07:45:31.657Z,9.98
2022-08-17T07:48:17.984Z,10.07
2022-08-17T07:50:49.371Z,11.13
2022-08-17T07:53:23.089Z,10.48
2022-08-17T07:55:50.600Z,11.00
2022-08-17T07:58:18.935Z,10.63
2022-08-17T08:00:46.479Z,11.63
2022-08-17T08:03:22.935Z,11.05
2022-08-17T08:05:57.728Z,13.27
2022-08-17T08:08:28.062Z,11.00
2022-08-17T08:11:00.427Z,10.55
2022-08-17T08:13:29.606Z,11.55
2022-08-17T08:16:12.271Z,11.27
2022-08-17T08:18:54.719Z,10.82
2022-08-17T08:21:32.906Z,10.43
2022-08-17T08:24:19.532Z,10.25
2022-08-17T08:26:57.673Z,11.10
2022-08-17T08:29:32.973Z,11.05
2022-08-17T08:32:06.035Z,10.40
2022-08-17T08:35:01.886Z,10.93
2022-08-17T08:37:36.846Z,10.40
2022-08-17T08:40:16.545Z,10.43
2022-08-17T08:42:53.386Z,10.13
2022-08-17T08:45:23.556Z,9.38
2022-08-17T08:47:51.096Z,9.90
2022-08-17T08:50:30.322Z,9.43
2022-08-17T08:53:04.887Z,9.40
2022-08-17T08:55:36.738Z,9.85
2022-08-17T08:58:09.082Z,8.90
2022-08-17T09:00:57.999Z,9.27
2022-08-17T09:03:51.206Z,8.45
2022-08-17T09:06:32.239Z,9.32
2022-08-17T09:09:07.865Z,8.90
2022-08-17T09:12:01.157Z,8.93
2022-08-17T09:14:45.256Z,8.77
2022-08-17T09:17:21.325Z,8.70
2022-08-17T09:19:57.143Z,9.20
2022-08-17T09:22:36.391Z,8.90
2022-08-17T09:25:27.895Z,9.00
2022-08-17T09:28:03.527Z,8.88
2022-08-17T09:30:38.528Z,8.13
2022-08-17T09:33:08.093Z,8.55
2022-08-17T09:35:37.705Z,8.07
2022-08-17T09:38:10.807Z,8.93
2022-08-17T09:40:51.268Z,8.45
2022-08-17T09:43:27.537Z,8.05
2022-08-17T09:45:58.518Z,8.30
2022-08-17T09:48:28.753Z,8.55
2022-08-17T09:51:07.051Z,8.27
2022-08-17T09:53:36.519Z,8.35
2022-08-17T09:56:03.624Z,8.60
2022-08-17T09:58:30.938Z,8.07
2022-08-17T10:01:01.237Z,8.55
2022-08-17T10:03:48.919Z,8.43
2022-08-17T10:06:22.156Z,8.27
2022-08-17T10:08:52.977Z,9.18
2022-08-17T10:12:09.270Z,9.18
2022-08-17T10:14:43.967Z,9.23
2022-08-17T10:17:11.776Z,9.10
2022-08-17T10:19:44.265Z,9.48
2022-08-17T10:22:46.258Z,9.20
2022-08-17T10:25:54.251Z,9.27
2022-08-17T10:28:28.741Z,9.13
2022-08-17T10:31:23.356Z,9.30
2022-08-17T10:34:01.722Z,9.85
2022-08-17T10:36:37.873Z,9.35
2022-08-17T10:39:15.810Z,9.30
2022-08-17T10:41:46.657Z,9.63
2022-08-17T10:44:46.813Z,9.00
2022-08-17T10:47:15.515Z,9.30
2022-08-17T10:49:53.689Z,9.73
2022-08-17T10:52:21.766Z,10.07
2022-08-17T10:54:48.936Z,10.05
2022-08-17T10:57:28.207Z,9.48
2022-08-17T10:59:56.316Z,9.73
2022-08-17T11:02:24.117Z,10.23
2022-08-17T11:05:09.688Z,10.15
2022-08-17T11:07:47.048Z,10.52
2022-08-17T11:10:32.670Z,11.32
2022-08-17T11:13:18.421Z,11.05
2022-08-17T11:15:50.516Z,12.05
2022-08-17T11:18:26.864Z,11.25
2022-08-17T11:21:09.152Z,12.70
2022-08-17T11:23:48.390Z,11.85
2022-08-17T11:26:25.868Z,11.60
2022-08-17T11:28:56.371Z,11.40
2022-08-17T11:31:37.958Z,10.68
2022-08-17T11:34:21.491Z,11.88
2022-08-17T11:36:48.600Z,11.13
2022-08-17T11:39:37.745Z,10.95
2022-08-17T11:42:25.479Z,10.90
2022-08-17T11:44:55.447Z,9.75
2022-08-17T11:47:41.196Z,10.65
2022-08-17T11:50:28.076Z,9.32
2022-08-17T11:52:55.768Z,10.98
2022-08-17T11:55:36.309Z,11.15
2022-08-17T11:58:04.554Z,10.10
2022-08-17T12:00:47.068Z,10.93
2022-08-17T12:03:54.278Z,10.10
2022-08-17T12:06:29.662Z,10.18
2022-08-17T12:09:02.946Z,10.23
2022-08-17T12:11:55.460Z,10.02
2022-08-17T12:14:45.418Z,11.48
2022-08-17T12:17:22.480Z,10.45
2022-08-17T12:20:21.725Z,11.35
2022-08-17T12:23:01.248Z,10.90
2022-08-17T12:25:34.672Z,12.40
2022-08-17T12:28:06.706Z,12.23
2022-08-17T12:30:34.709Z,11.27
2022-08-17T12:33:02.513Z,10.82
2022-08-17T12:35:34.477Z,10.65
2022-08-17T12:38:01.822Z,11.27
2022-08-17T12:40:31.501Z,10.43
2022-08-17T12:43:00.868Z,10.30
2022-08-17T12:45:34.064Z,9.98
2022-08-17T12:48:07.814Z,10.65
2022-08-17T12:50:37.146Z,10.25
2022-08-17T12:53:04.344Z,10.05
2022-08-17T12:55:36.639Z,9.70
2022-08-17T12:58:03.906Z,9.80
2022-08-17T13:00:32.761Z,10.18
2022-08-17T13:03:05.819Z,11.13
2022-08-17T13:05:35.979Z,10.70
2022-08-17T13:08:23.551Z,9.95
2022-08-17T13:10:56.928Z,11.32
2022-08-17T13:13:29.026Z,10.63
2022-08-17T13:15:58.318Z,9.50
2022-08-17T13:18:40.368Z,10.00
2022-08-17T13:21:19.658Z,9.40
2022-08-17T13:24:06.734Z,11.02
2022-08-17T13:26:42.927Z,11.00
2022-08-17T13:29:30.403Z,10.77
2022-08-17T13:32:14.278Z,9.77
2022-08-17T13:34:48.964Z,8.48
2022-08-17T13:37:34.780Z,9.98
2022-08-17T13:40:11.421Z,9.18
2022-08-17T13:42:54.041Z,8.50
2022-08-17T13:45:36.227Z,9.25
2022-08-17T13:48:11.878Z,8.63
2022-08-17T13:50:59.865Z,9.27
2022-08-17T13:53:31.160Z,8.35
2022-08-17T13:56:33.425Z,8.45
2022-08-17T13:58:55.848Z,8.35
2022-08-17T14:01:30.188Z,8.82
2022-08-17T14:03:57.912Z,9.23
2022-08-17T14:06:51.540Z,8.75
2022-08-17T14:09:21.064Z,8.45
2022-08-17T14:11:48.715Z,10.18
2022-08-17T14:14:16.575Z,8.65
2022-08-17T14:16:44.012Z,9.43
2022-08-17T14:19:12.690Z,9.88
2022-08-17T14:21:42.235Z,9.80
2022-08-17T14:24:10.976Z,10.75
2022-08-17T14:26:39.314Z,10.18
2022-08-17T14:29:14.996Z,9.95
2022-08-17T14:31:42.929Z,10.40
2022-08-17T14:34:20.664Z,9.65
2022-08-17T14:36:48.576Z,9.52
2022-08-17T14:39:16.486Z,8.90
2022-08-17T14:41:44.116Z,9.60
2022-08-17T14:44:12.500Z,9.55
2022-08-17T14:46:40.916Z,11.15
2022-08-17T14:49:08.787Z,9.48
2022-08-17T14:51:43.745Z,9.68
2022-08-17T14:54:11.869Z,10.77
2022-08-17T14:57:00.916Z,10.10
2022-08-17T14:59:46.148Z,10.73
2022-08-17T15:02:13.698Z,10.70
2022-08-17T15:04:45.557Z,10.10
2022-08-17T15:07:13.022Z,10.07
2022-08-17T15:09:40.181Z,9.50
2022-08-17T15:12:07.530Z,10.43
2022-08-17T15:14:35.537Z,10.80
2022-08-17T15:17:03.576Z,11.10
2022-08-17T15:19:31.091Z,12.00
2022-08-17T15:21:58.657Z,11.65
2022-08-17T15:24:25.798Z,11.30
2022-08-17T15:26:53.050Z,10.65
2022-08-17T15:29:20.307Z,11.07
2022-08-17T15:31:47.841Z,11.48
2022-08-17T15:34:17.227Z,11.18
2022-08-17T15:36:49.504Z,10.20
2022-08-17T15:39:19.436Z,10.32
2022-08-17T15:41:47.338Z,11.25
2022-08-17T15:44:32.766Z,10.85
2022-08-17T15:47:02.448Z,11.43
2022-08-17T15:49:29.568Z,10.23
2022-08-17T15:51:56.715Z,10.48
2022-08-17T15:54:23.866Z,10.15
2022-08-17T15:56:51.336Z,9.60
2022-08-17T15:59:19.362Z,9.93
2022-08-17T16:03:04.677Z,10.35
2022-08-17T16:04:33.639Z,9.30
2022-08-17T16:07:00.950Z,9.38
2022-08-17T16:09:28.623Z,9.35
2022-08-17T16:11:56.440Z,9.50
2022-08-17T16:14:32.401Z,10.10
2022-08-17T16:17:02.999Z,9.90
2022-08-17T16:19:30.318Z,10.52
2022-08-17T16:21:57.534Z,8.95
2022-08-17T16:24:24.652Z,9.27
2022-08-17T16:26:51.904Z,8.57
2022-08-17T16:29:19.095Z,9.07
2022-08-17T16:31:46.301Z,9.25
2022-08-17T16:34:16.913Z,9.77
2022-08-17T16:36:55.558Z,9.60
2022-08-17T16:39:24.167Z,8.88
2022-08-17T16:41:51.391Z,9.55
2022-08-17T16:44:20.742Z,9.40
2022-08-17T16:46:48.593Z,9.85
2022-08-17T16:49:35.897Z,10.20
2022-08-17T16:52:04.801Z,10.15
2022-08-17T16:54:32.686Z,9.82
2022-08-17T16:57:00.190Z,10.27
2022-08-17T16:59:39.382Z,10.20
2022-08-17T17:02:12.488Z,10.23
2022-08-17T17:04:43.358Z,10.32
2022-08-17T17:07:33.736Z,11.02
2022-08-17T17:10:06.125Z,10.75
2022-08-17T17:13:01.428Z,10.52
2022-08-17T17:15:22.246Z,10.00
2022-08-17T17:17:50.118Z,10.27
2022-08-17T17:20:20.710Z,10.25
2022-08-17T17:22:59.414Z,10.50
2022-08-17T17:25:26.533Z,10.57
2022-08-17T17:27:59.761Z,9.57
2022-08-17T17:30:30.669Z,10.40
2022-08-17T17:33:19.154Z,11.32
2022-08-17T17:35:57.464Z,10.82
2022-08-17T17:38:29.022Z,10.23
2022-08-17T17:41:02.276Z,10.57
2022-08-17T17:43:40.495Z,10.45
2022-08-17T17:46:29.127Z,10.40
2022-08-17T17:48:57.348Z,11.40
2022-08-17T17:52:02.881Z,12.38
2022-08-17T17:54:47.222Z,10.85
2022-08-17T17:57:29.539Z,11.35
2022-08-17T18:00:04.739Z,10.48
2022-08-17T18:02:52.224Z,10.80
2022-08-17T18:05:38.835Z,11.18
2022-08-17T18:08:33.836Z,11.88
2022-08-17T18:11:04.754Z,11.77
2022-08-17T18:13:54.184Z,12.25
2022-08-17T18:16:22.569Z,11.57
2022-08-17T18:18:50.719Z,12.45
2022-08-17T18:21:20.372Z,11.60
2022-08-17T18:23:57.628Z,12.52
2022-08-17T18:26:36.503Z,12.85
2022-08-17T18:29:24.257Z,13.27
2022-08-17T18:32:10.169Z,13.63
2022-08-17T18:34:47.277Z,12.75
2022-08-17T18:37:29.979Z,13.38
2022-08-17T18:39:57.221Z,14.02
2022-08-17T18:42:28.789Z,14.35
2022-08-17T18:44:56.530Z,13.25
2022-08-17T18:47:25.554Z,13.48
2022-08-17T18:49:57.528Z,14.43
2022-08-17T18:52:29.184Z,14.88
2022-08-17T18:55:02.513Z,14.95
2022-08-17T18:57:36.094Z,14.80
2022-08-17T19:00:11.057Z,13.93
2022-08-17T19:02:49.842Z,13.40
2022-08-17T19:05:38.004Z,13.82
2022-08-17T19:08:34.806Z,13.25
2022-08-17T19:11:04.345Z,13.13
2022-08-17T19:13:33.048Z,13.20
2022-08-17T19:16:13.990Z,12.77
2022-08-17T19:18:48.424Z,11.98
2022-08-17T19:21:21.365Z,13.25
2022-08-17T19:23:53.560Z,13.27
2022-08-17T19:26:54.076Z,13.27
2022-08-17T19:29:22.403Z,13.85
2022-08-17T19:31:49.926Z,14.75
2022-08-17T19:34:30.213Z,14.00
2022-08-17T19:37:21.032Z,13.80
2022-08-17T19:39:48.332Z,13.75
2022-08-17T19:42:21.716Z,14.02
2022-08-17T19:45:12.043Z,14.07
2022-08-17T19:47:55.370Z,13.93
2022-08-17T19:50:41.275Z,13.70
2022-08-17T19:53:20.753Z,14.32
2022-08-17T19:55:47.894Z,13.20
2022-08-17T19:58:33.592Z,14.07
2022-08-17T20:01:00.960Z,14.15
2022-08-17T20:03:32.527Z,14.10
2022-08-17T20:06:12.494Z,14.73
2022-08-17T20:08:55.985Z,15.25
2022-08-17T20:11:32.430Z,15.00
2022-08-17T20:14:19.861Z,14.13
2022-08-17T20:16:47.582Z,14.63
2022-08-17T20:19:28.478Z,16.17
2022-08-17T20:22:04.623Z,15.27
2022-08-17T20:24:43.100Z,17.27
2022-08-17T20:27:11.007Z,16.73
2022-08-17T20:29:57.156Z,17.83
2022-08-17T20:32:32.579Z,16.88
2022-08-17T20:35:06.341Z,15.38
2022-08-17T20:37:34.752Z,14.95
2022-08-17T20:40:05.696Z,15.13
2022-08-17T20:42:33.855Z,14.90
2022-08-17T20:45:05.332Z,14.32
2022-08-17T20:47:34.715Z,14.43
2022-08-17T20:50:04.892Z,14.50
2022-08-17T20:52:44.681Z,13.75
2022-08-17T20:55:51.947Z,14.10
2022-08-17T20:58:22.008Z,15.02
2022-08-17T21:00:51.750Z,14.32
2022-08-17T21:03:22.554Z,14.60
2022-08-17T21:05:59.723Z,14.68
2022-08-17T21:08:29.569Z,14.27
2022-08-17T21:10:57.595Z,14.38
2022-08-17T21:13:42.133Z,15.50
2022-08-17T21:16:27.939Z,15.23
2022-08-17T21:18:55.051Z,16.17
2022-08-17T21:21:29.562Z,17.52
2022-08-17T21:24:15.077Z,17.77
2022-08-17T21:27:01.802Z,18.70
2022-08-17T21:29:33.905Z,17.75
2022-08-17T21:32:06.963Z,19.55
2022-08-17T21:34:43.808Z,18.90
2022-08-17T21:37:23.332Z,18.35
2022-08-17T21:39:55.933Z,17.17
2022-08-17T21:42:34.035Z,18.65
2022-08-17T21:45:16.655Z,20.42
2022-08-17T21:47:49.090Z,18.73
2022-08-17T21:50:25.967Z,19.55
2022-08-17T21:52:57.821Z,18.23
2022-08-17T21:55:29.351Z,19.50
2022-08-17T21:58:14.900Z,20.87
2022-08-17T22:00:44.589Z,19.40
2022-08-17T22:03:26.056Z,19.40
2022-08-17T22:05:53.272Z,18.80
2022-08-17T22:08:22.119Z,22.40
2022-08-17T22:10:51.272Z,21.03
2022-08-17T22:13:18.435Z,20.40
2022-08-17T22:16:27.810Z,19.73
2022-08-17T22:18:54.360Z,15.43
2022-08-17T22:21:22.570Z,15.43
2022-08-17T22:24:06.232Z,14.90
2022-08-17T22:26:52.337Z,16.17
2022-08-17T22:29:38.235Z,16.43
2022-08-17T22:32:05.436Z,15.80
2022-08-17T22:34:32.606Z,16.53
2022-08-17T22:37:18.438Z,17.13
2022-08-17T22:39:45.619Z,17.10
2022-08-17T22:42:14.626Z,18.70
2022-08-17T22:44:49.136Z,18.03
2022-08-17T22:47:16.980Z,16.47
2022-08-17T22:49:56.564Z,16.43
2022-08-17T22:53:01.280Z,15.25
2022-08-17T22:55:48.862Z,15.47
2022-08-17T22:58:36.074Z,14.80
2022-08-17T23:01:23.145Z,13.57
2022-08-17T23:03:55.835Z,14.10
2022-08-17T23:06:24.208Z,12.40
2022-08-17T23:08:56.336Z,11.87
2022-08-17T23:11:42.822Z,10.93
2022-08-17T23:14:14.490Z,10.87
2022-08-17T23:16:45.002Z,11.03
2022-08-17T23:19:13.417Z,11.37
2022-08-17T23:21:40.755Z,10.47
2022-08-17T23:24:09.025Z,10.70
2022-08-17T23:26:39.120Z,10.47
2022-08-17T23:29:06.836Z,8.73
2022-08-17T23:31:34.972Z,8.53
2022-08-17T23:34:03.741Z,8.27
2022-08-17T23:36:31.536Z,7.70
2022-08-17T23:38:58.746Z,6.07
2022-08-17T23:41:28.011Z,6.43
2022-08-17T23:43:55.403Z,5.97
2022-08-17T23:46:25.008Z,5.80
2022-08-17T23:48:53.957Z,6.10
2022-08-17T23:51:22.805Z,6.10
2022-08-17T23:53:58.179Z,5.53
2022-08-17T23:56:28.717Z,7.90
2022-08-17T23:58:56.214Z,8.53
